METAR Data
IDs: Format: Raw Decoded Include TAF

Data at: 0634 UTC 24 Sep 2018

KTAD 240554Z AUTO 23015KT 10SM CLR 19/01 A2998 RMK AO2 SLP060 T01940006 10278 20194 55000
KTAD 240454Z AUTO 22014KT 10SM CLR 21/02 A2999 RMK AO2 PK WND 20034/0411 SLP062 T02110017
KTAD 240354Z AUTO 20024G33KT 10SM CLR 23/02 A2997 RMK AO2 PK WND 20035/0335 SLP059 T02280022
KTAD 240254Z AUTO 25011G21KT 10SM CLR 23/01 A2998 RMK AO2 SLP068 T02330011 52001
KTAD 240154Z AUTO 24003KT 10SM CLR 24/M01 A2998 RMK AO2 SLP074 T02391006
KTAD 240054Z AUTO 19009KT 10SM CLR 24/M03 A2998 RMK AO2 SLP079 T02441033
KTAD 232354Z AUTO 18011KT 10SM CLR 28/M04 A2998 RMK AO2 SLP073 T02781039 10306 20278 56015
KTAD 232254Z AUTO 14006KT 10SM CLR 29/M03 A2998 RMK AO2 SLP067 T02941033
KTAD 232154Z AUTO 12010G18KT 10SM CLR 29/M03 A3000 RMK AO2 SLP069 T02941028
KTAD 232054Z AUTO 10008G16KT 10SM CLR 29/M03 A3003 RMK AO2 SLP079 T02941028 58029
KTAD 231954Z AUTO 13011G18KT 10SM CLR 29/M03 A3006 RMK AO2 SLP091 T02941033
KTAD 231854Z AUTO 13007KT 10SM CLR 28/M03 A3009 RMK AO2 SLP104 T02831033
KTAD 231754Z AUTO VRB03KT 10SM CLR 28/M02 A3013 RMK AO2 SLP114 T02831022 10283 20106 58007
KTAD 231654Z AUTO 35004KT 10SM CLR 26/00 A3015 RMK AO2 SLP128 T02610000
KTAD 231554Z AUTO 26006KT 10SM CLR 24/01 A3016 RMK AO2 SLP131 T02390011
KTAD 231454Z AUTO 25013KT 10SM FEW120 19/02 A3015 RMK AO2 SLP135 T01940017 53004
KTAD 231354Z AUTO 25015KT 10SM CLR 16/02 A3014 RMK AO2 SLP143 T01560022
KTAD 231254Z AUTO 26011KT 10SM CLR 12/03 A3014 RMK AO2 SLP142 T01170033
KTAD 231154Z AUTO 27007KT 10SM CLR 12/03 A3014 RMK AO2 SLP132 T01220033 10178 20122 53003
KTAD 231054Z AUTO 25014KT 10SM CLR 14/03 A3012 RMK AO2 SLP123 T01440033
KTAD 230954Z AUTO 24014KT 10SM CLR 16/03 A3012 RMK AO2 SLP116 T01560033
KTAD 230854Z AUTO 00000KT 10SM CLR 17/03 A3013 RMK AO2 SLP116 T01670033 56006
KTAD 230754Z AUTO 22010G17KT 10SM CLR 17/03 A3014 RMK AO2 SLP121 T01670033
KTAD 230654Z AUTO 25011G17KT 10SM CLR 17/04 A3014 RMK AO2 SLP122 T01720039 402890106
KTAD 230554Z AUTO 25004KT 10SM CLR 18/04 A3015 RMK AO2 SLP127 T01780039 10261 20156 58002
KTAD 230454Z AUTO 24005KT 10SM CLR 17/04 A3015 RMK AO2 SLP135 T01670044
KTAD 230354Z AUTO VRB04KT 10SM CLR 19/04 A3016 RMK AO2 SLP138 T01890039
KTAD 230254Z AUTO 21008KT 10SM CLR 20/04 A3016 RMK AO2 SLP141 T02000039 53005
KTAD 230154Z AUTO 20009G17KT 10SM CLR 18/04 A3014 RMK AO2 SLP145 T01780039
KTAD 230054Z AUTO 21009KT 10SM CLR 21/04 A3014 RMK AO2 SLP141 T02110039
KTAD 222354Z AUTO 22012G16KT 10SM FEW110 26/02 A3014 RMK AO2 SLP132 T02610022 10289 20250 58008
KTAD 222254Z AUTO 29015G22KT 10SM BKN110 25/02 A3016 RMK AO2 SLP141 T02500017
KTAD 222154Z AUTO 11010G17KT 10SM CLR 28/00 A3015 RMK AO2 SLP132 T02830000
KTAD 222054Z AUTO 11012G17KT 10SM CLR 28/02 A3017 RMK AO2 SLP136 T02830022 58027
KTAD 221954Z AUTO 10SM CLR 28/M02 A3020 RMK AO2 SLP148 T02781017
KTAD 221854Z AUTO 13004KT 10SM CLR 27/01 A3023 RMK AO2 SLP165 T02720011